sensor_id;sensor_type;location;lat;lon;timestamp;P1;durP1;ratioP1;P2;durP2;ratioP2
51034;SDS011;37062;52.546;13.230;2022-07-18T00:01:27;6.22;;;1.98;;
51034;SDS011;37062;52.546;13.230;2022-07-18T00:03:54;4.05;;;2.22;;
51034;SDS011;37062;52.546;13.230;2022-07-18T00:06:21;5.40;;;1.90;;
51034;SDS011;37062;52.546;13.230;2022-07-18T00:08:48;4.93;;;2.10;;
51034;SDS011;37062;52.546;13.230;2022-07-18T00:11:16;4.63;;;2.05;;
51034;SDS011;37062;52.546;13.230;2022-07-18T00:13:44;3.95;;;2.13;;
51034;SDS011;37062;52.546;13.230;2022-07-18T00:16:11;5.70;;;2.00;;
51034;SDS011;37062;52.546;13.230;2022-07-18T00:18:38;3.90;;;2.00;;
51034;SDS011;37062;52.546;13.230;2022-07-18T00:21:08;4.53;;;2.20;;
51034;SDS011;37062;52.546;13.230;2022-07-18T00:23:35;3.85;;;2.15;;
51034;SDS011;37062;52.546;13.230;2022-07-18T00:26:09;4.85;;;1.80;;
51034;SDS011;37062;52.546;13.230;2022-07-18T00:28:36;3.55;;;1.90;;
51034;SDS011;37062;52.546;13.230;2022-07-18T00:31:10;4.93;;;1.90;;
51034;SDS011;37062;52.546;13.230;2022-07-18T00:33:37;2.75;;;1.60;;
51034;SDS011;37062;52.546;13.230;2022-07-18T00:36:07;4.13;;;1.50;;
51034;SDS011;37062;52.546;13.230;2022-07-18T00:38:34;3.25;;;1.77;;
51034;SDS011;37062;52.546;13.230;2022-07-18T00:41:01;2.63;;;1.50;;
51034;SDS011;37062;52.546;13.230;2022-07-18T00:43:35;4.00;;;1.67;;
51034;SDS011;37062;52.546;13.230;2022-07-18T00:46:01;3.08;;;1.65;;
51034;SDS011;37062;52.546;13.230;2022-07-18T00:48:37;5.30;;;2.30;;
51034;SDS011;37062;52.546;13.230;2022-07-18T00:51:08;3.40;;;2.00;;
51034;SDS011;37062;52.546;13.230;2022-07-18T00:53:35;4.68;;;2.10;;
51034;SDS011;37062;52.546;13.230;2022-07-18T00:56:09;4.90;;;1.48;;
51034;SDS011;37062;52.546;13.230;2022-07-18T00:58:37;5.80;;;2.25;;
51034;SDS011;37062;52.546;13.230;2022-07-18T01:01:07;3.33;;;1.88;;
51034;SDS011;37062;52.546;13.230;2022-07-18T01:03:56;3.97;;;1.73;;
51034;SDS011;37062;52.546;13.230;2022-07-18T01:06:23;6.03;;;1.67;;
51034;SDS011;37062;52.546;13.230;2022-07-18T01:08:50;2.85;;;1.90;;
51034;SDS011;37062;52.546;13.230;2022-07-18T01:11:17;5.82;;;1.45;;
51034;SDS011;37062;52.546;13.230;2022-07-18T01:13:44;4.70;;;2.20;;
51034;SDS011;37062;52.546;13.230;2022-07-18T01:16:13;2.58;;;1.75;;
51034;SDS011;37062;52.546;13.230;2022-07-18T01:18:43;3.53;;;1.70;;
51034;SDS011;37062;52.546;13.230;2022-07-18T01:21:12;4.22;;;1.70;;
51034;SDS011;37062;52.546;13.230;2022-07-18T01:23:40;2.03;;;1.70;;
51034;SDS011;37062;52.546;13.230;2022-07-18T01:26:10;7.10;;;2.00;;
51034;SDS011;37062;52.546;13.230;2022-07-18T01:28:39;6.05;;;1.80;;
51034;SDS011;37062;52.546;13.230;2022-07-18T01:31:13;3.20;;;1.50;;
51034;SDS011;37062;52.546;13.230;2022-07-18T01:33:40;6.47;;;1.80;;
51034;SDS011;37062;52.546;13.230;2022-07-18T01:36:10;2.67;;;1.77;;
51034;SDS011;37062;52.546;13.230;2022-07-18T01:38:38;3.47;;;1.67;;
51034;SDS011;37062;52.546;13.230;2022-07-18T01:41:09;6.70;;;2.20;;
51034;SDS011;37062;52.546;13.230;2022-07-18T01:43:39;4.35;;;1.55;;
51034;SDS011;37062;52.546;13.230;2022-07-18T01:46:10;6.15;;;1.80;;
51034;SDS011;37062;52.546;13.230;2022-07-18T01:48:37;4.00;;;2.03;;
51034;SDS011;37062;52.546;13.230;2022-07-18T01:51:08;6.85;;;2.17;;
51034;SDS011;37062;52.546;13.230;2022-07-18T01:53:36;5.97;;;1.90;;
51034;SDS011;37062;52.546;13.230;2022-07-18T01:56:14;8.38;;;2.10;;
51034;SDS011;37062;52.546;13.230;2022-07-18T01:58:41;6.80;;;1.83;;
51034;SDS011;37062;52.546;13.230;2022-07-18T02:01:08;3.45;;;1.77;;
51034;SDS011;37062;52.546;13.230;2022-07-18T02:03:35;4.03;;;1.77;;
51034;SDS011;37062;52.546;13.230;2022-07-18T02:06:08;4.07;;;1.70;;
51034;SDS011;37062;52.546;13.230;2022-07-18T02:08:35;4.90;;;2.05;;
51034;SDS011;37062;52.546;13.230;2022-07-18T02:11:02;6.70;;;1.88;;
51034;SDS011;37062;52.546;13.230;2022-07-18T02:13:38;3.10;;;1.75;;
51034;SDS011;37062;52.546;13.230;2022-07-18T02:16:08;2.58;;;1.80;;
51034;SDS011;37062;52.546;13.230;2022-07-18T02:18:35;5.30;;;2.00;;
51034;SDS011;37062;52.546;13.230;2022-07-18T02:21:11;5.20;;;1.85;;
51034;SDS011;37062;52.546;13.230;2022-07-18T02:23:39;5.20;;;1.67;;
51034;SDS011;37062;52.546;13.230;2022-07-18T02:26:10;5.88;;;2.00;;
51034;SDS011;37062;52.546;13.230;2022-07-18T02:28:39;3.65;;;2.00;;
51034;SDS011;37062;52.546;13.230;2022-07-18T02:31:09;5.43;;;1.95;;
51034;SDS011;37062;52.546;13.230;2022-07-18T02:33:36;4.45;;;2.15;;
51034;SDS011;37062;52.546;13.230;2022-07-18T02:36:09;7.80;;;1.92;;
51034;SDS011;37062;52.546;13.230;2022-07-18T02:38:36;3.83;;;1.80;;
51034;SDS011;37062;52.546;13.230;2022-07-18T02:41:09;4.18;;;1.98;;
51034;SDS011;37062;52.546;13.230;2022-07-18T02:43:36;3.20;;;1.65;;
51034;SDS011;37062;52.546;13.230;2022-07-18T02:46:10;4.95;;;2.10;;
51034;SDS011;37062;52.546;13.230;2022-07-18T02:48:37;5.30;;;2.10;;
51034;SDS011;37062;52.546;13.230;2022-07-18T02:51:07;6.38;;;2.20;;
51034;SDS011;37062;52.546;13.230;2022-07-18T02:53:34;3.38;;;1.95;;
51034;SDS011;37062;52.546;13.230;2022-07-18T02:56:01;4.38;;;2.17;;
51034;SDS011;37062;52.546;13.230;2022-07-18T02:58:42;2.70;;;1.85;;
51034;SDS011;37062;52.546;13.230;2022-07-18T03:01:10;4.97;;;1.92;;
51034;SDS011;37062;52.546;13.230;2022-07-18T03:03:37;6.72;;;2.42;;
51034;SDS011;37062;52.546;13.230;2022-07-18T03:06:11;6.22;;;2.47;;
51034;SDS011;37062;52.546;13.230;2022-07-18T03:08:38;3.85;;;2.10;;
51034;SDS011;37062;52.546;13.230;2022-07-18T03:11:11;5.75;;;1.95;;
51034;SDS011;37062;52.546;13.230;2022-07-18T03:13:38;4.38;;;2.17;;
51034;SDS011;37062;52.546;13.230;2022-07-18T03:16:12;5.30;;;2.47;;
51034;SDS011;37062;52.546;13.230;2022-07-18T03:18:39;5.95;;;2.50;;
51034;SDS011;37062;52.546;13.230;2022-07-18T03:21:09;5.95;;;2.80;;
51034;SDS011;37062;52.546;13.230;2022-07-18T03:23:36;3.72;;;2.33;;
51034;SDS011;37062;52.546;13.230;2022-07-18T03:26:10;3.40;;;2.30;;
51034;SDS011;37062;52.546;13.230;2022-07-18T03:28:37;5.95;;;2.55;;
51034;SDS011;37062;52.546;13.230;2022-07-18T03:31:10;13.30;;;2.60;;
51034;SDS011;37062;52.546;13.230;2022-07-18T03:33:39;7.20;;;2.80;;
51034;SDS011;37062;52.546;13.230;2022-07-18T03:36:09;3.85;;;2.05;;
51034;SDS011;37062;52.546;13.230;2022-07-18T03:38:36;5.38;;;2.28;;
51034;SDS011;37062;52.546;13.230;2022-07-18T03:41:10;5.45;;;2.40;;
51034;SDS011;37062;52.546;13.230;2022-07-18T03:43:38;9.38;;;2.85;;
51034;SDS011;37062;52.546;13.230;2022-07-18T03:46:09;3.10;;;2.00;;
51034;SDS011;37062;52.546;13.230;2022-07-18T03:48:36;5.38;;;2.40;;
51034;SDS011;37062;52.546;13.230;2022-07-18T03:51:10;6.68;;;2.65;;
51034;SDS011;37062;52.546;13.230;2022-07-18T03:53:37;3.92;;;2.40;;
51034;SDS011;37062;52.546;13.230;2022-07-18T03:56:13;5.20;;;2.35;;
51034;SDS011;37062;52.546;13.230;2022-07-18T03:58:40;5.78;;;2.13;;
51034;SDS011;37062;52.546;13.230;2022-07-18T04:01:13;5.18;;;2.25;;
51034;SDS011;37062;52.546;13.230;2022-07-18T04:03:40;6.15;;;2.65;;
51034;SDS011;37062;52.546;13.230;2022-07-18T04:06:11;3.33;;;2.35;;
51034;SDS011;37062;52.546;13.230;2022-07-18T04:08:38;6.00;;;2.55;;
51034;SDS011;37062;52.546;13.230;2022-07-18T04:11:11;5.45;;;2.33;;
51034;SDS011;37062;52.546;13.230;2022-07-18T04:13:38;4.97;;;2.15;;
51034;SDS011;37062;52.546;13.230;2022-07-18T04:16:11;4.88;;;2.50;;
51034;SDS011;37062;52.546;13.230;2022-07-18T04:18:38;6.10;;;2.42;;
51034;SDS011;37062;52.546;13.230;2022-07-18T04:21:16;7.22;;;2.72;;
51034;SDS011;37062;52.546;13.230;2022-07-18T04:23:45;7.25;;;4.28;;
51034;SDS011;37062;52.546;13.230;2022-07-18T04:26:12;6.05;;;3.80;;
51034;SDS011;37062;52.546;13.230;2022-07-18T04:28:39;5.75;;;2.50;;
51034;SDS011;37062;52.546;13.230;2022-07-18T04:31:12;9.20;;;2.95;;
51034;SDS011;37062;52.546;13.230;2022-07-18T04:33:39;6.45;;;3.13;;
51034;SDS011;37062;52.546;13.230;2022-07-18T04:36:09;7.68;;;3.17;;
51034;SDS011;37062;52.546;13.230;2022-07-18T04:38:37;15.10;;;2.85;;
51034;SDS011;37062;52.546;13.230;2022-07-18T04:41:11;10.43;;;2.78;;
51034;SDS011;37062;52.546;13.230;2022-07-18T04:43:38;7.25;;;2.92;;
51034;SDS011;37062;52.546;13.230;2022-07-18T04:46:11;4.68;;;2.38;;
51034;SDS011;37062;52.546;13.230;2022-07-18T04:48:38;7.65;;;2.65;;
51034;SDS011;37062;52.546;13.230;2022-07-18T04:51:11;8.48;;;2.58;;
51034;SDS011;37062;52.546;13.230;2022-07-18T04:53:39;11.73;;;3.03;;
51034;SDS011;37062;52.546;13.230;2022-07-18T04:56:09;5.53;;;2.70;;
51034;SDS011;37062;52.546;13.230;2022-07-18T04:58:36;6.82;;;2.78;;
51034;SDS011;37062;52.546;13.230;2022-07-18T05:01:09;8.10;;;2.65;;
51034;SDS011;37062;52.546;13.230;2022-07-18T05:03:36;6.85;;;2.90;;
51034;SDS011;37062;52.546;13.230;2022-07-18T05:06:12;5.22;;;2.10;;
51034;SDS011;37062;52.546;13.230;2022-07-18T05:08:40;7.68;;;3.42;;
51034;SDS011;37062;52.546;13.230;2022-07-18T05:11:10;9.77;;;2.90;;
51034;SDS011;37062;52.546;13.230;2022-07-18T05:13:37;6.85;;;2.53;;
51034;SDS011;37062;52.546;13.230;2022-07-18T05:16:08;3.22;;;2.63;;
51034;SDS011;37062;52.546;13.230;2022-07-18T05:18:35;9.38;;;2.80;;
51034;SDS011;37062;52.546;13.230;2022-07-18T05:21:09;4.00;;;2.20;;
51034;SDS011;37062;52.546;13.230;2022-07-18T05:23:36;5.18;;;2.67;;
51034;SDS011;37062;52.546;13.230;2022-07-18T05:26:10;7.57;;;2.72;;
51034;SDS011;37062;52.546;13.230;2022-07-18T05:28:37;5.10;;;2.60;;
51034;SDS011;37062;52.546;13.230;2022-07-18T05:31:10;8.35;;;2.83;;
51034;SDS011;37062;52.546;13.230;2022-07-18T05:33:38;5.18;;;2.70;;
51034;SDS011;37062;52.546;13.230;2022-07-18T05:36:11;6.97;;;3.10;;
51034;SDS011;37062;52.546;13.230;2022-07-18T05:38:38;8.90;;;4.85;;
51034;SDS011;37062;52.546;13.230;2022-07-18T05:41:15;8.23;;;3.60;;
51034;SDS011;37062;52.546;13.230;2022-07-18T05:43:42;10.20;;;4.22;;
51034;SDS011;37062;52.546;13.230;2022-07-18T05:46:09;13.80;;;4.40;;
51034;SDS011;37062;52.546;13.230;2022-07-18T05:48:38;8.00;;;3.53;;
51034;SDS011;37062;52.546;13.230;2022-07-18T05:51:14;9.80;;;3.88;;
51034;SDS011;37062;52.546;13.230;2022-07-18T05:53:41;9.57;;;3.45;;
51034;SDS011;37062;52.546;13.230;2022-07-18T05:56:08;11.50;;;3.90;;
51034;SDS011;37062;52.546;13.230;2022-07-18T05:58:37;9.18;;;3.20;;
51034;SDS011;37062;52.546;13.230;2022-07-18T06:01:10;9.40;;;3.30;;
51034;SDS011;37062;52.546;13.230;2022-07-18T06:03:42;5.50;;;2.60;;
51034;SDS011;37062;52.546;13.230;2022-07-18T06:06:11;6.65;;;3.10;;
51034;SDS011;37062;52.546;13.230;2022-07-18T06:08:38;11.30;;;2.90;;
51034;SDS011;37062;52.546;13.230;2022-07-18T06:11:09;5.72;;;2.70;;
51034;SDS011;37062;52.546;13.230;2022-07-18T06:13:38;10.30;;;2.88;;
51034;SDS011;37062;52.546;13.230;2022-07-18T06:16:13;4.53;;;2.30;;
51034;SDS011;37062;52.546;13.230;2022-07-18T06:18:40;7.20;;;2.63;;
51034;SDS011;37062;52.546;13.230;2022-07-18T06:21:10;3.25;;;2.15;;
51034;SDS011;37062;52.546;13.230;2022-07-18T06:23:38;4.78;;;2.88;;
51034;SDS011;37062;52.546;13.230;2022-07-18T06:26:11;5.60;;;3.13;;
51034;SDS011;37062;52.546;13.230;2022-07-18T06:28:40;6.82;;;2.65;;
51034;SDS011;37062;52.546;13.230;2022-07-18T06:31:10;8.55;;;3.50;;
51034;SDS011;37062;52.546;13.230;2022-07-18T06:33:40;7.45;;;2.90;;
51034;SDS011;37062;52.546;13.230;2022-07-18T06:36:09;4.68;;;2.65;;
51034;SDS011;37062;52.546;13.230;2022-07-18T06:38:38;10.25;;;2.70;;
51034;SDS011;37062;52.546;13.230;2022-07-18T06:41:09;4.82;;;3.00;;
51034;SDS011;37062;52.546;13.230;2022-07-18T06:43:36;4.13;;;2.83;;
51034;SDS011;37062;52.546;13.230;2022-07-18T06:46:10;3.75;;;2.38;;
51034;SDS011;37062;52.546;13.230;2022-07-18T06:48:38;3.78;;;2.22;;
51034;SDS011;37062;52.546;13.230;2022-07-18T06:51:08;5.82;;;2.20;;
51034;SDS011;37062;52.546;13.230;2022-07-18T06:53:35;5.57;;;2.25;;
51034;SDS011;37062;52.546;13.230;2022-07-18T06:56:11;3.83;;;2.20;;
51034;SDS011;37062;52.546;13.230;2022-07-18T06:58:38;4.45;;;2.13;;
51034;SDS011;37062;52.546;13.230;2022-07-18T07:01:08;5.85;;;2.53;;
51034;SDS011;37062;52.546;13.230;2022-07-18T07:03:36;7.70;;;2.33;;
51034;SDS011;37062;52.546;13.230;2022-07-18T07:06:09;5.63;;;2.20;;
51034;SDS011;37062;52.546;13.230;2022-07-18T07:08:39;2.50;;;1.63;;
51034;SDS011;37062;52.546;13.230;2022-07-18T07:11:10;9.80;;;2.60;;
51034;SDS011;37062;52.546;13.230;2022-07-18T07:13:37;9.73;;;2.40;;
51034;SDS011;37062;52.546;13.230;2022-07-18T07:16:13;5.68;;;2.90;;
51034;SDS011;37062;52.546;13.230;2022-07-18T07:18:41;6.40;;;3.15;;
51034;SDS011;37062;52.546;13.230;2022-07-18T07:21:11;5.13;;;2.08;;
51034;SDS011;37062;52.546;13.230;2022-07-18T07:23:38;4.80;;;2.10;;
51034;SDS011;37062;52.546;13.230;2022-07-18T07:26:15;4.72;;;2.50;;
51034;SDS011;37062;52.546;13.230;2022-07-18T07:28:42;8.45;;;3.08;;
51034;SDS011;37062;52.546;13.230;2022-07-18T07:31:09;3.70;;;1.83;;
51034;SDS011;37062;52.546;13.230;2022-07-18T07:33:36;5.28;;;1.85;;
51034;SDS011;37062;52.546;13.230;2022-07-18T07:36:10;12.00;;;2.30;;
51034;SDS011;37062;52.546;13.230;2022-07-18T07:38:38;5.20;;;1.95;;
51034;SDS011;37062;52.546;13.230;2022-07-18T07:41:11;5.15;;;1.88;;
51034;SDS011;37062;52.546;13.230;2022-07-18T07:43:38;3.40;;;2.22;;
51034;SDS011;37062;52.546;13.230;2022-07-18T07:46:08;2.70;;;2.05;;
51034;SDS011;37062;52.546;13.230;2022-07-18T07:48:37;5.88;;;2.78;;
51034;SDS011;37062;52.546;13.230;2022-07-18T07:51:14;3.38;;;2.00;;
51034;SDS011;37062;52.546;13.230;2022-07-18T07:53:41;5.90;;;2.00;;
51034;SDS011;37062;52.546;13.230;2022-07-18T07:56:09;2.40;;;1.65;;
51034;SDS011;37062;52.546;13.230;2022-07-18T07:58:36;3.05;;;2.10;;
51034;SDS011;37062;52.546;13.230;2022-07-18T08:01:09;3.35;;;1.83;;
51034;SDS011;37062;52.546;13.230;2022-07-18T08:03:37;3.55;;;1.85;;
51034;SDS011;37062;52.546;13.230;2022-07-18T08:06:11;6.15;;;2.85;;
51034;SDS011;37062;52.546;13.230;2022-07-18T08:08:40;2.58;;;1.65;;
51034;SDS011;37062;52.546;13.230;2022-07-18T08:11:10;5.55;;;2.65;;
51034;SDS011;37062;52.546;13.230;2022-07-18T08:13:37;3.08;;;2.30;;
51034;SDS011;37062;52.546;13.230;2022-07-18T08:16:10;3.97;;;1.50;;
51034;SDS011;37062;52.546;13.230;2022-07-18T08:18:37;2.17;;;1.83;;
51034;SDS011;37062;52.546;13.230;2022-07-18T08:21:10;2.88;;;1.90;;
51034;SDS011;37062;52.546;13.230;2022-07-18T08:23:40;2.17;;;1.73;;
51034;SDS011;37062;52.546;13.230;2022-07-18T08:26:14;2.85;;;1.83;;
51034;SDS011;37062;52.546;13.230;2022-07-18T08:28:41;4.68;;;2.17;;
51034;SDS011;37062;52.546;13.230;2022-07-18T08:31:11;3.00;;;2.25;;
51034;SDS011;37062;52.546;13.230;2022-07-18T08:33:38;6.15;;;2.58;;
51034;SDS011;37062;52.546;13.230;2022-07-18T08:36:08;3.95;;;2.50;;
51034;SDS011;37062;52.546;13.230;2022-07-18T08:38:35;5.20;;;2.83;;
51034;SDS011;37062;52.546;13.230;2022-07-18T08:41:10;3.53;;;2.83;;
51034;SDS011;37062;52.546;13.230;2022-07-18T08:43:39;3.97;;;3.08;;
51034;SDS011;37062;52.546;13.230;2022-07-18T08:46:09;3.40;;;2.58;;
51034;SDS011;37062;52.546;13.230;2022-07-18T08:48:38;4.50;;;2.33;;
51034;SDS011;37062;52.546;13.230;2022-07-18T08:51:12;5.03;;;3.03;;
51034;SDS011;37062;52.546;13.230;2022-07-18T08:53:39;8.25;;;3.35;;
51034;SDS011;37062;52.546;13.230;2022-07-18T08:56:10;6.93;;;2.50;;
51034;SDS011;37062;52.546;13.230;2022-07-18T08:58:37;3.90;;;2.65;;
51034;SDS011;37062;52.546;13.230;2022-07-18T09:01:10;4.80;;;2.63;;
51034;SDS011;37062;52.546;13.230;2022-07-18T09:03:38;7.07;;;3.40;;
51034;SDS011;37062;52.546;13.230;2022-07-18T09:06:12;3.25;;;2.88;;
51034;SDS011;37062;52.546;13.230;2022-07-18T09:08:40;6.13;;;3.03;;
51034;SDS011;37062;52.546;13.230;2022-07-18T09:11:26;5.32;;;2.95;;
51034;SDS011;37062;52.546;13.230;2022-07-18T09:13:53;5.78;;;2.97;;
51034;SDS011;37062;52.546;13.230;2022-07-18T09:16:20;4.45;;;2.95;;
51034;SDS011;37062;52.546;13.230;2022-07-18T09:18:47;5.72;;;2.88;;
51034;SDS011;37062;52.546;13.230;2022-07-18T09:21:15;3.40;;;3.10;;
51034;SDS011;37062;52.546;13.230;2022-07-18T09:23:45;4.22;;;2.95;;
51034;SDS011;37062;52.546;13.230;2022-07-18T09:26:17;7.50;;;2.90;;
51034;SDS011;37062;52.546;13.230;2022-07-18T09:29:04;4.97;;;3.15;;
51034;SDS011;37062;52.546;13.230;2022-07-18T09:31:31;3.58;;;2.72;;
51034;SDS011;37062;52.546;13.230;2022-07-18T09:33:59;4.40;;;3.53;;
51034;SDS011;37062;52.546;13.230;2022-07-18T09:36:29;4.55;;;3.70;;
51034;SDS011;37062;52.546;13.230;2022-07-18T09:38:59;6.28;;;4.50;;
51034;SDS011;37062;52.546;13.230;2022-07-18T09:41:26;5.45;;;3.75;;
51034;SDS011;37062;52.546;13.230;2022-07-18T09:43:56;8.38;;;3.10;;
51034;SDS011;37062;52.546;13.230;2022-07-18T09:46:23;3.97;;;2.85;;
51034;SDS011;37062;52.546;13.230;2022-07-18T09:51:36;4.75;;;2.88;;
51034;SDS011;37062;52.546;13.230;2022-07-18T09:54:03;4.07;;;2.78;;
51034;SDS011;37062;52.546;13.230;2022-07-18T09:56:30;4.63;;;3.10;;
51034;SDS011;37062;52.546;13.230;2022-07-18T09:59:00;4.45;;;3.40;;
51034;SDS011;37062;52.546;13.230;2022-07-18T10:01:27;3.92;;;2.78;;
51034;SDS011;37062;52.546;13.230;2022-07-18T10:03:55;4.75;;;3.75;;
51034;SDS011;37062;52.546;13.230;2022-07-18T10:06:25;7.03;;;3.55;;
51034;SDS011;37062;52.546;13.230;2022-07-18T10:08:52;3.55;;;2.85;;
51034;SDS011;37062;52.546;13.230;2022-07-18T10:11:20;4.55;;;3.20;;
51034;SDS011;37062;52.546;13.230;2022-07-18T10:13:48;3.88;;;2.92;;
51034;SDS011;37062;52.546;13.230;2022-07-18T10:16:19;4.18;;;2.72;;
51034;SDS011;37062;52.546;13.230;2022-07-18T10:18:46;3.47;;;2.78;;
51034;SDS011;37062;52.546;13.230;2022-07-18T10:21:13;3.03;;;2.55;;
51034;SDS011;37062;52.546;13.230;2022-07-18T10:23:45;5.60;;;3.22;;
51034;SDS011;37062;52.546;13.230;2022-07-18T10:26:14;4.75;;;3.40;;
51034;SDS011;37062;52.546;13.230;2022-07-18T10:34:31;6.00;;;2.97;;
51034;SDS011;37062;52.546;13.230;2022-07-18T10:37:09;5.20;;;3.20;;
51034;SDS011;37062;52.546;13.230;2022-07-18T10:39:37;3.15;;;2.70;;
51034;SDS011;37062;52.546;13.230;2022-07-18T10:42:14;4.82;;;3.45;;
51034;SDS011;37062;52.546;13.230;2022-07-18T10:44:43;6.55;;;3.85;;
51034;SDS011;37062;52.546;13.230;2022-07-18T10:47:13;4.60;;;3.22;;
51034;SDS011;37062;52.546;13.230;2022-07-18T10:52:56;7.13;;;4.03;;
51034;SDS011;37062;52.546;13.230;2022-07-18T10:55:26;5.85;;;3.90;;
51034;SDS011;37062;52.546;13.230;2022-07-18T10:58:16;5.88;;;3.20;;
51034;SDS011;37062;52.546;13.230;2022-07-18T11:00:46;6.45;;;5.10;;
51034;SDS011;37062;52.546;13.230;2022-07-18T11:03:21;6.90;;;4.50;;
51034;SDS011;37062;52.546;13.230;2022-07-18T11:05:55;4.65;;;3.15;;
51034;SDS011;37062;52.546;13.230;2022-07-18T11:08:23;7.95;;;4.50;;
51034;SDS011;37062;52.546;13.230;2022-07-18T11:13:38;6.05;;;3.90;;
51034;SDS011;37062;52.546;13.230;2022-07-18T11:16:12;4.63;;;3.10;;
51034;SDS011;37062;52.546;13.230;2022-07-18T11:21:57;3.67;;;3.28;;
51034;SDS011;37062;52.546;13.230;2022-07-18T11:24:24;7.75;;;3.38;;
51034;SDS011;37062;52.546;13.230;2022-07-18T11:26:53;3.75;;;2.45;;
51034;SDS011;37062;52.546;13.230;2022-07-18T11:29:20;4.00;;;2.85;;
51034;SDS011;37062;52.546;13.230;2022-07-18T11:31:47;3.47;;;2.75;;
51034;SDS011;37062;52.546;13.230;2022-07-18T11:34:15;5.22;;;3.15;;
51034;SDS011;37062;52.546;13.230;2022-07-18T11:36:43;3.85;;;3.33;;
51034;SDS011;37062;52.546;13.230;2022-07-18T11:39:14;3.70;;;3.05;;
51034;SDS011;37062;52.546;13.230;2022-07-18T11:41:53;4.07;;;2.80;;
51034;SDS011;37062;52.546;13.230;2022-07-18T11:44:21;3.33;;;2.78;;
51034;SDS011;37062;52.546;13.230;2022-07-18T11:47:00;7.07;;;2.92;;
51034;SDS011;37062;52.546;13.230;2022-07-18T11:49:27;5.50;;;3.30;;
51034;SDS011;37062;52.546;13.230;2022-07-18T11:51:54;3.80;;;3.28;;
51034;SDS011;37062;52.546;13.230;2022-07-18T11:54:23;4.28;;;3.33;;
51034;SDS011;37062;52.546;13.230;2022-07-18T11:56:51;4.60;;;3.22;;
51034;SDS011;37062;52.546;13.230;2022-07-18T11:59:19;4.20;;;3.20;;
51034;SDS011;37062;52.546;13.230;2022-07-18T12:01:47;5.20;;;2.60;;
51034;SDS011;37062;52.546;13.230;2022-07-18T12:04:17;4.50;;;3.05;;
51034;SDS011;37062;52.546;13.230;2022-07-18T12:06:46;5.20;;;3.65;;
51034;SDS011;37062;52.546;13.230;2022-07-18T12:09:29;7.57;;;4.07;;
51034;SDS011;37062;52.546;13.230;2022-07-18T12:11:56;4.57;;;3.88;;
51034;SDS011;37062;52.546;13.230;2022-07-18T12:14:33;5.13;;;3.42;;
51034;SDS011;37062;52.546;13.230;2022-07-18T12:17:02;5.25;;;3.35;;
51034;SDS011;37062;52.546;13.230;2022-07-18T12:19:32;6.00;;;4.05;;
51034;SDS011;37062;52.546;13.230;2022-07-18T12:22:04;5.50;;;4.22;;
51034;SDS011;37062;52.546;13.230;2022-07-18T12:24:34;7.53;;;5.55;;
51034;SDS011;37062;52.546;13.230;2022-07-18T12:27:08;8.20;;;4.53;;
51034;SDS011;37062;52.546;13.230;2022-07-18T12:30:00;6.93;;;4.18;;
51034;SDS011;37062;52.546;13.230;2022-07-18T12:32:35;4.85;;;3.70;;
51034;SDS011;37062;52.546;13.230;2022-07-18T12:35:05;5.13;;;3.33;;
51034;SDS011;37062;52.546;13.230;2022-07-18T12:37:33;4.68;;;3.78;;
51034;SDS011;37062;52.546;13.230;2022-07-18T12:40:03;5.82;;;4.72;;
51034;SDS011;37062;52.546;13.230;2022-07-18T12:42:32;6.28;;;4.75;;
51034;SDS011;37062;52.546;13.230;2022-07-18T12:45:02;5.05;;;4.30;;
51034;SDS011;37062;52.546;13.230;2022-07-18T12:47:30;5.28;;;3.90;;
51034;SDS011;37062;52.546;13.230;2022-07-18T12:49:57;7.40;;;4.40;;
51034;SDS011;37062;52.546;13.230;2022-07-18T12:52:24;5.07;;;4.15;;
51034;SDS011;37062;52.546;13.230;2022-07-18T12:54:51;5.82;;;3.90;;
51034;SDS011;37062;52.546;13.230;2022-07-18T12:57:19;4.03;;;3.58;;
51034;SDS011;37062;52.546;13.230;2022-07-18T12:59:47;6.15;;;3.92;;
51034;SDS011;37062;52.546;13.230;2022-07-18T13:02:15;4.00;;;3.35;;
51034;SDS011;37062;52.546;13.230;2022-07-18T13:04:43;6.60;;;3.65;;
51034;SDS011;37062;52.546;13.230;2022-07-18T13:07:11;4.55;;;3.85;;
51034;SDS011;37062;52.546;13.230;2022-07-18T13:09:38;6.47;;;3.58;;
51034;SDS011;37062;52.546;13.230;2022-07-18T13:12:05;4.15;;;3.10;;
51034;SDS011;37062;52.546;13.230;2022-07-18T13:14:34;6.32;;;3.40;;
51034;SDS011;37062;52.546;13.230;2022-07-18T13:17:01;5.63;;;3.22;;
51034;SDS011;37062;52.546;13.230;2022-07-18T13:19:28;7.07;;;3.58;;
51034;SDS011;37062;52.546;13.230;2022-07-18T13:21:56;6.75;;;3.58;;
51034;SDS011;37062;52.546;13.230;2022-07-18T13:24:25;4.68;;;3.80;;
51034;SDS011;37062;52.546;13.230;2022-07-18T13:26:52;5.32;;;3.33;;
51034;SDS011;37062;52.546;13.230;2022-07-18T13:29:19;5.63;;;2.75;;
51034;SDS011;37062;52.546;13.230;2022-07-18T13:31:48;8.48;;;3.53;;
51034;SDS011;37062;52.546;13.230;2022-07-18T13:34:17;3.50;;;3.00;;
51034;SDS011;37062;52.546;13.230;2022-07-18T13:36:46;4.10;;;2.92;;
51034;SDS011;37062;52.546;13.230;2022-07-18T13:39:17;4.32;;;3.85;;
51034;SDS011;37062;52.546;13.230;2022-07-18T13:41:44;4.82;;;3.00;;
51034;SDS011;37062;52.546;13.230;2022-07-18T13:44:12;7.05;;;3.33;;
51034;SDS011;37062;52.546;13.230;2022-07-18T13:46:40;5.55;;;3.50;;
51034;SDS011;37062;52.546;13.230;2022-07-18T13:49:09;3.83;;;3.42;;
51034;SDS011;37062;52.546;13.230;2022-07-18T13:51:37;4.53;;;3.00;;
51034;SDS011;37062;52.546;13.230;2022-07-18T13:54:04;4.72;;;3.13;;
51034;SDS011;37062;52.546;13.230;2022-07-18T13:56:32;5.75;;;3.08;;
51034;SDS011;37062;52.546;13.230;2022-07-18T13:58:59;4.50;;;3.03;;
51034;SDS011;37062;52.546;13.230;2022-07-18T14:01:26;3.78;;;2.90;;
51034;SDS011;37062;52.546;13.230;2022-07-18T14:03:53;4.90;;;3.50;;
51034;SDS011;37062;52.546;13.230;2022-07-18T14:06:21;4.15;;;3.20;;
51034;SDS011;37062;52.546;13.230;2022-07-18T14:08:48;4.20;;;2.70;;
51034;SDS011;37062;52.546;13.230;2022-07-18T14:11:15;3.80;;;2.38;;
51034;SDS011;37062;52.546;13.230;2022-07-18T14:13:44;4.35;;;2.55;;
51034;SDS011;37062;52.546;13.230;2022-07-18T14:16:12;2.95;;;2.70;;
51034;SDS011;37062;52.546;13.230;2022-07-18T14:18:39;7.40;;;3.05;;
51034;SDS011;37062;52.546;13.230;2022-07-18T14:21:07;5.80;;;3.35;;
51034;SDS011;37062;52.546;13.230;2022-07-18T14:23:35;4.93;;;3.05;;
51034;SDS011;37062;52.546;13.230;2022-07-18T14:26:08;3.95;;;2.90;;
51034;SDS011;37062;52.546;13.230;2022-07-18T14:28:35;2.92;;;2.63;;
51034;SDS011;37062;52.546;13.230;2022-07-18T14:31:06;4.88;;;3.00;;
51034;SDS011;37062;52.546;13.230;2022-07-18T14:33:33;3.15;;;2.85;;
51034;SDS011;37062;52.546;13.230;2022-07-18T14:35:59;7.35;;;3.95;;
51034;SDS011;37062;52.546;13.230;2022-07-18T14:38:32;4.57;;;3.08;;
51034;SDS011;37062;52.546;13.230;2022-07-18T14:41:00;3.95;;;3.13;;
51034;SDS011;37062;52.546;13.230;2022-07-18T14:43:27;5.78;;;3.17;;
51034;SDS011;37062;52.546;13.230;2022-07-18T14:45:54;6.18;;;3.78;;
51034;SDS011;37062;52.546;13.230;2022-07-18T14:48:21;9.70;;;4.20;;
51034;SDS011;37062;52.546;13.230;2022-07-18T14:50:48;4.47;;;3.35;;
51034;SDS011;37062;52.546;13.230;2022-07-18T14:53:15;19.60;;;4.30;;
51034;SDS011;37062;52.546;13.230;2022-07-18T14:55:42;4.40;;;3.30;;
51034;SDS011;37062;52.546;13.230;2022-07-18T14:58:11;5.47;;;3.40;;
51034;SDS011;37062;52.546;13.230;2022-07-18T15:00:38;7.47;;;5.18;;
51034;SDS011;37062;52.546;13.230;2022-07-18T15:03:05;6.97;;;4.10;;
51034;SDS011;37062;52.546;13.230;2022-07-18T15:05:32;4.03;;;3.63;;